Time;durP1;ratioP1;P1;durP2;ratioP2;P2;SDS_P1;SDS_P2;PMS_P1;PMS_P2;Temp;Humidity;BMP_temperature;BMP_pressure;BME280_temperature;BME280_humidity;BME280_pressure;Samples;Min_cycle;Max_cycle;Signal;HPM_P1;HPM_P2
2022/07/23 00:00:22;;;;;;;8.950002;8.15;;;;;;;23.84;54.99023;95340.26;;;;
2022/07/23 00:01:23;;;;;;;8.950002;8.15;;;;;;;23.84;54.99023;95340.26;;;;
2022/07/23 00:02:23;;;;;;;8.950002;8.15;;;;;;;23.84;54.99023;95340.26;;;;
2022/07/23 00:03:24;;;;;;;8.950002;8.15;;;;;;;23.84;54.99023;95340.26;;;;
2022/07/23 00:04:25;;;;;;;8.950002;8.15;;;;;;;23.84;54.99023;95340.26;;;;
2022/07/23 00:05:25;;;;;;;8.950002;8.15;;;;;;;23.84;54.99023;95340.26;;;;
2022/07/23 00:06:26;;;;;;;8.950002;8.15;;;;;;;23.84;54.99023;95340.26;;;;
2022/07/23 00:07:26;;;;;;;8.950002;8.15;;;;;;;23.84;54.99023;95340.26;;;;
2022/07/23 00:08:27;;;;;;;8.950002;8.15;;;;;;;23.84;54.99023;95340.26;;;;
2022/07/23 00:09:30;;;;;;;8.950002;8.15;;;;;;;23.84;54.99023;95340.26;;;;
2022/07/23 00:10:31;;;;;;;8.450001;7.700001;;;;;;;23.63;55.32129;95305.63;;;;
2022/07/23 00:11:32;;;;;;;8.450001;7.700001;;;;;;;23.63;55.32129;95305.63;;;;
2022/07/23 00:12:33;;;;;;;8.450001;7.700001;;;;;;;23.63;55.32129;95305.63;;;;
2022/07/23 00:13:33;;;;;;;8.450001;7.700001;;;;;;;23.63;55.32129;95305.63;;;;
2022/07/23 00:14:34;;;;;;;8.450001;7.700001;;;;;;;23.63;55.32129;95305.63;;;;
2022/07/23 00:15:34;;;;;;;8.450001;7.700001;;;;;;;23.63;55.32129;95305.63;;;;
2022/07/23 00:16:35;;;;;;;8.450001;7.700001;;;;;;;23.63;55.32129;95305.63;;;;
2022/07/23 00:17:35;;;;;;;8.450001;7.700001;;;;;;;23.63;55.32129;95305.63;;;;
2022/07/23 00:18:36;;;;;;;8.450001;7.700001;;;;;;;23.63;55.32129;95305.63;;;;
2022/07/23 00:19:36;;;;;;;8.450001;7.700001;;;;;;;23.63;55.32129;95305.63;;;;
2022/07/23 00:20:37;;;;;;;8.450001;7.700001;;;;;;;23.63;55.32129;95305.63;;;;
2022/07/23 00:21:38;;;;;;;8.700001;7.900001;;;;;;;23.44;55.69824;95318.32;;;;
2022/07/23 00:22:38;;;;;;;8.700001;7.900001;;;;;;;23.44;55.69824;95318.32;;;;
2022/07/23 00:23:46;;;;;;;8.700001;7.900001;;;;;;;23.44;55.69824;95318.32;;;;
2022/07/23 00:24:46;;;;;;;8.700001;7.900001;;;;;;;23.44;55.69824;95318.32;;;;
2022/07/23 00:25:47;;;;;;;8.700001;7.900001;;;;;;;23.44;55.69824;95318.32;;;;
2022/07/23 00:26:47;;;;;;;8.700001;7.900001;;;;;;;23.44;55.69824;95318.32;;;;
2022/07/23 00:27:48;;;;;;;8.700001;7.900001;;;;;;;23.44;55.69824;95318.32;;;;
2022/07/23 00:28:48;;;;;;;8.700001;7.900001;;;;;;;23.44;55.69824;95318.32;;;;
2022/07/23 00:29:49;;;;;;;8.700001;7.900001;;;;;;;23.44;55.69824;95318.32;;;;
2022/07/23 00:30:49;;;;;;;8.700001;7.900001;;;;;;;23.44;55.69824;95318.32;;;;
2022/07/23 00:31:50;;;;;;;8.949998;8.15;;;;;;;23.22;56.0166;95331.52;;;;
2022/07/23 00:32:50;;;;;;;8.949998;8.15;;;;;;;23.22;56.0166;95331.52;;;;
2022/07/23 00:33:56;;;;;;;8.949998;8.15;;;;;;;23.22;56.0166;95331.52;;;;
2022/07/23 00:34:57;;;;;;;8.949998;8.15;;;;;;;23.22;56.0166;95331.52;;;;
2022/07/23 00:35:57;;;;;;;8.949998;8.15;;;;;;;23.22;56.0166;95331.52;;;;
2022/07/23 00:36:58;;;;;;;8.949998;8.15;;;;;;;23.22;56.0166;95331.52;;;;
2022/07/23 00:37:58;;;;;;;8.949998;8.15;;;;;;;23.22;56.0166;95331.52;;;;
2022/07/23 00:39:00;;;;;;;8.949998;8.15;;;;;;;23.22;56.0166;95331.52;;;;
2022/07/23 00:40:00;;;;;;;8.949998;8.15;;;;;;;23.22;56.0166;95331.52;;;;
2022/07/23 00:41:01;;;;;;;8.949998;8.15;;;;;;;23.22;56.0166;95331.52;;;;
2022/07/23 00:42:01;;;;;;;8.5;7.699999;;;;;;;23.13;56.21777;95360.64;;;;
2022/07/23 00:43:02;;;;;;;8.5;7.699999;;;;;;;23.13;56.21777;95360.64;;;;
2022/07/23 00:44:03;;;;;;;8.5;7.699999;;;;;;;23.13;56.21777;95360.64;;;;
2022/07/23 00:45:15;;;;;;;8.5;7.699999;;;;;;;23.13;56.21777;95360.64;;;;
2022/07/23 00:46:16;;;;;;;8.5;7.699999;;;;;;;23.13;56.21777;95360.64;;;;
2022/07/23 00:47:19;;;;;;;8.5;7.699999;;;;;;;23.13;56.21777;95360.64;;;;
2022/07/23 00:48:19;;;;;;;8.5;7.699999;;;;;;;23.13;56.21777;95360.64;;;;
2022/07/23 00:49:20;;;;;;;8.5;7.699999;;;;;;;23.13;56.21777;95360.64;;;;
2022/07/23 00:50:21;;;;;;;8.5;7.699999;;;;;;;23.13;56.21777;95360.64;;;;
2022/07/23 00:51:22;;;;;;;8.5;7.699999;;;;;;;23.13;56.21777;95360.64;;;;
2022/07/23 00:52:22;;;;;;;8.5;7.699999;;;;;;;23.13;56.21777;95360.64;;;;
2022/07/23 00:53:23;;;;;;;8.5;7.699999;;;;;;;23.04;56.49512;95380.83;;;;
2022/07/23 00:54:24;;;;;;;8.5;7.699999;;;;;;;23.04;56.49512;95380.83;;;;
2022/07/23 00:55:26;;;;;;;8.5;7.699999;;;;;;;23.04;56.49512;95380.83;;;;
2022/07/23 00:56:27;;;;;;;8.5;7.699999;;;;;;;23.04;56.49512;95380.83;;;;
2022/07/23 00:57:28;;;;;;;8.5;7.699999;;;;;;;23.04;56.49512;95380.83;;;;
2022/07/23 00:58:28;;;;;;;8.5;7.699999;;;;;;;23.04;56.49512;95380.83;;;;
2022/07/23 00:59:29;;;;;;;8.5;7.699999;;;;;;;23.04;56.49512;95380.83;;;;
2022/07/23 01:00:30;;;;;;;8.5;7.699999;;;;;;;23.04;56.49512;95380.83;;;;
2022/07/23 01:01:30;;;;;;;8.5;7.699999;;;;;;;23.04;56.49512;95380.83;;;;
2022/07/23 01:02:31;;;;;;;8.5;7.699999;;;;;;;23.04;56.49512;95380.83;;;;
2022/07/23 01:03:31;;;;;;;8.05;7.25;;;;;;;23.11;56.58203;95410.02;;;;
2022/07/23 01:04:32;;;;;;;8.05;7.25;;;;;;;23.11;56.58203;95410.02;;;;
2022/07/23 01:05:33;;;;;;;8.05;7.25;;;;;;;23.11;56.58203;95410.02;;;;
2022/07/23 01:06:33;;;;;;;8.05;7.25;;;;;;;23.11;56.58203;95410.02;;;;
2022/07/23 01:07:36;;;;;;;8.05;7.25;;;;;;;23.11;56.58203;95410.02;;;;
2022/07/23 01:08:38;;;;;;;8.05;7.25;;;;;;;23.11;56.58203;95410.02;;;;
2022/07/23 01:09:39;;;;;;;8.05;7.25;;;;;;;23.11;56.58203;95410.02;;;;
2022/07/23 01:10:40;;;;;;;8.05;7.25;;;;;;;23.11;56.58203;95410.02;;;;
2022/07/23 01:11:41;;;;;;;8.05;7.25;;;;;;;23.11;56.58203;95410.02;;;;
2022/07/23 01:12:42;;;;;;;8.05;7.25;;;;;;;23.11;56.58203;95410.02;;;;
2022/07/23 01:13:43;;;;;;;8.05;7.25;;;;;;;23.11;56.58203;95410.02;;;;
2022/07/23 01:14:44;;;;;;;11.5;8.299999;;;;;;;23.18;56.74609;95485.63;;;;
2022/07/23 01:15:44;;;;;;;11.5;8.299999;;;;;;;23.18;56.74609;95485.63;;;;
2022/07/23 01:16:45;;;;;;;11.5;8.299999;;;;;;;23.18;56.74609;95485.63;;;;
2022/07/23 01:17:47;;;;;;;11.5;8.299999;;;;;;;23.18;56.74609;95485.63;;;;
2022/07/23 01:18:48;;;;;;;11.5;8.299999;;;;;;;23.18;56.74609;95485.63;;;;
2022/07/23 01:19:49;;;;;;;11.5;8.299999;;;;;;;23.18;56.74609;95485.63;;;;
2022/07/23 01:20:49;;;;;;;11.5;8.299999;;;;;;;23.18;56.74609;95485.63;;;;
2022/07/23 01:21:50;;;;;;;11.5;8.299999;;;;;;;23.18;56.74609;95485.63;;;;
2022/07/23 01:22:53;;;;;;;11.5;8.299999;;;;;;;23.18;56.74609;95485.63;;;;
2022/07/23 01:23:54;;;;;;;11.5;8.299999;;;;;;;23.18;56.74609;95485.63;;;;
2022/07/23 01:24:54;;;;;;;13.35;8.699999;;;;;;;23.38;57.11621;95565.03;;;;
2022/07/23 01:25:55;;;;;;;13.35;8.699999;;;;;;;23.38;57.11621;95565.03;;;;
2022/07/23 01:26:55;;;;;;;13.35;8.699999;;;;;;;23.38;57.11621;95565.03;;;;
2022/07/23 01:27:56;;;;;;;13.35;8.699999;;;;;;;23.38;57.11621;95565.03;;;;
2022/07/23 01:28:57;;;;;;;13.35;8.699999;;;;;;;23.38;57.11621;95565.03;;;;
2022/07/23 01:29:57;;;;;;;13.35;8.699999;;;;;;;23.38;57.11621;95565.03;;;;
2022/07/23 01:30:59;;;;;;;13.35;8.699999;;;;;;;23.38;57.11621;95565.03;;;;
2022/07/23 01:32:00;;;;;;;13.35;8.699999;;;;;;;23.38;57.11621;95565.03;;;;
2022/07/23 01:33:00;;;;;;;13.35;8.699999;;;;;;;23.38;57.11621;95565.03;;;;
2022/07/23 01:34:01;;;;;;;13.35;8.699999;;;;;;;23.38;57.11621;95565.03;;;;
2022/07/23 01:35:02;;;;;;;13.35;8.699999;;;;;;;23.38;57.11621;95565.03;;;;
2022/07/23 01:36:04;;;;;;;14.6;7.55;;;;;;;23.11;56.14746;95521.56;;;;
2022/07/23 01:37:05;;;;;;;14.6;7.55;;;;;;;23.11;56.14746;95521.56;;;;
2022/07/23 01:38:05;;;;;;;14.6;7.55;;;;;;;23.11;56.14746;95521.56;;;;
2022/07/23 01:39:06;;;;;;;14.6;7.55;;;;;;;23.11;56.14746;95521.56;;;;
2022/07/23 01:40:08;;;;;;;14.6;7.55;;;;;;;23.11;56.14746;95521.56;;;;
2022/07/23 01:41:09;;;;;;;14.6;7.55;;;;;;;23.11;56.14746;95521.56;;;;
2022/07/23 01:42:09;;;;;;;14.6;7.55;;;;;;;23.11;56.14746;95521.56;;;;
2022/07/23 01:43:10;;;;;;;14.6;7.55;;;;;;;23.11;56.14746;95521.56;;;;
2022/07/23 01:44:10;;;;;;;14.6;7.55;;;;;;;23.11;56.14746;95521.56;;;;
2022/07/23 01:45:11;;;;;;;14.6;7.55;;;;;;;23.11;56.14746;95521.56;;;;
2022/07/23 01:46:11;;;;;;;9.35;7.849999;;;;;;;22.45;56.7207;95518.95;;;;
2022/07/23 01:47:12;;;;;;;9.35;7.849999;;;;;;;22.45;56.7207;95518.95;;;;
2022/07/23 01:48:13;;;;;;;9.35;7.849999;;;;;;;22.45;56.7207;95518.95;;;;
2022/07/23 01:49:13;;;;;;;9.35;7.849999;;;;;;;22.45;56.7207;95518.95;;;;
2022/07/23 01:50:14;;;;;;;9.35;7.849999;;;;;;;22.45;56.7207;95518.95;;;;
2022/07/23 01:51:15;;;;;;;9.35;7.849999;;;;;;;22.45;56.7207;95518.95;;;;
2022/07/23 01:52:16;;;;;;;9.35;7.849999;;;;;;;22.45;56.7207;95518.95;;;;
2022/07/23 01:53:16;;;;;;;9.35;7.849999;;;;;;;22.45;56.7207;95518.95;;;;
2022/07/23 01:54:17;;;;;;;9.35;7.849999;;;;;;;22.45;56.7207;95518.95;;;;
2022/07/23 01:55:17;;;;;;;9.35;7.849999;;;;;;;22.45;56.7207;95518.95;;;;
2022/07/23 01:56:20;;;;;;;9.35;7.849999;;;;;;;22.45;56.7207;95518.95;;;;
2022/07/23 01:57:21;;;;;;;9.450001;8.549999;;;;;;;21.66;58.24023;95472.52;;;;
2022/07/23 01:58:21;;;;;;;9.450001;8.549999;;;;;;;21.66;58.24023;95472.52;;;;
2022/07/23 01:59:22;;;;;;;9.450001;8.549999;;;;;;;21.66;58.24023;95472.52;;;;
2022/07/23 02:00:23;;;;;;;9.450001;8.549999;;;;;;;21.66;58.24023;95472.52;;;;
2022/07/23 02:01:23;;;;;;;9.450001;8.549999;;;;;;;21.66;58.24023;95472.52;;;;
2022/07/23 02:02:24;;;;;;;9.450001;8.549999;;;;;;;21.66;58.24023;95472.52;;;;
2022/07/23 02:03:24;;;;;;;9.450001;8.549999;;;;;;;21.66;58.24023;95472.52;;;;
2022/07/23 02:04:25;;;;;;;9.450001;8.549999;;;;;;;21.66;58.24023;95472.52;;;;
2022/07/23 02:05:28;;;;;;;9.450001;8.549999;;;;;;;21.66;58.24023;95472.52;;;;
2022/07/23 02:06:29;;;;;;;9.450001;8.549999;;;;;;;21.66;58.24023;95472.52;;;;
2022/07/23 02:07:29;;;;;;;9.399999;8.5;;;;;;;21.03;59.53125;95462.92;;;;
2022/07/23 02:08:30;;;;;;;9.399999;8.5;;;;;;;21.03;59.53125;95462.92;;;;
2022/07/23 02:09:30;;;;;;;9.399999;8.5;;;;;;;21.03;59.53125;95462.92;;;;
2022/07/23 02:10:31;;;;;;;9.399999;8.5;;;;;;;21.03;59.53125;95462.92;;;;
2022/07/23 02:11:31;;;;;;;9.399999;8.5;;;;;;;21.03;59.53125;95462.92;;;;
2022/07/23 02:12:32;;;;;;;9.399999;8.5;;;;;;;21.03;59.53125;95462.92;;;;
2022/07/23 02:13:33;;;;;;;9.399999;8.5;;;;;;;21.03;59.53125;95462.92;;;;
2022/07/23 02:14:33;;;;;;;9.399999;8.5;;;;;;;21.03;59.53125;95462.92;;;;
2022/07/23 02:15:34;;;;;;;9.399999;8.5;;;;;;;21.03;59.53125;95462.92;;;;
2022/07/23 02:16:34;;;;;;;9.399999;8.5;;;;;;;21.03;59.53125;95462.92;;;;
2022/07/23 02:17:35;;;;;;;9.399999;8.5;;;;;;;21.03;59.53125;95462.92;;;;
2022/07/23 02:18:36;;;;;;;8.65;7.900001;;;;;;;20.42;61.19629;95434.36;;;;
2022/07/23 02:19:36;;;;;;;8.65;7.900001;;;;;;;20.42;61.19629;95434.36;;;;
2022/07/23 02:20:38;;;;;;;8.65;7.900001;;;;;;;20.42;61.19629;95434.36;;;;
2022/07/23 02:21:38;;;;;;;8.65;7.900001;;;;;;;20.42;61.19629;95434.36;;;;
2022/07/23 02:22:39;;;;;;;8.65;7.900001;;;;;;;20.42;61.19629;95434.36;;;;
2022/07/23 02:23:39;;;;;;;8.65;7.900001;;;;;;;20.42;61.19629;95434.36;;;;
2022/07/23 02:24:40;;;;;;;8.65;7.900001;;;;;;;20.42;61.19629;95434.36;;;;
2022/07/23 02:25:41;;;;;;;8.65;7.900001;;;;;;;20.42;61.19629;95434.36;;;;
2022/07/23 02:26:41;;;;;;;8.65;7.900001;;;;;;;20.42;61.19629;95434.36;;;;
2022/07/23 02:27:42;;;;;;;8.65;7.900001;;;;;;;20.42;61.19629;95434.36;;;;
2022/07/23 02:28:42;;;;;;;6.6;5.9;;;;;;;19.96;62.67773;95418.33;;;;
2022/07/23 02:29:43;;;;;;;6.6;5.9;;;;;;;19.96;62.67773;95418.33;;;;
2022/07/23 02:30:44;;;;;;;6.6;5.9;;;;;;;19.96;62.67773;95418.33;;;;
2022/07/23 02:31:44;;;;;;;6.6;5.9;;;;;;;19.96;62.67773;95418.33;;;;
2022/07/23 02:32:44;;;;;;;6.6;5.9;;;;;;;19.96;62.67773;95418.33;;;;
2022/07/23 02:33:45;;;;;;;6.6;5.9;;;;;;;19.96;62.67773;95418.33;;;;
2022/07/23 02:34:45;;;;;;;6.6;5.9;;;;;;;19.96;62.67773;95418.33;;;;
2022/07/23 02:35:46;;;;;;;6.6;5.9;;;;;;;19.96;62.67773;95418.33;;;;
2022/07/23 02:36:46;;;;;;;6.6;5.9;;;;;;;19.96;62.67773;95418.33;;;;
2022/07/23 02:37:47;;;;;;;6.6;5.9;;;;;;;19.96;62.67773;95418.33;;;;
2022/07/23 02:38:48;;;;;;;6.6;5.9;;;;;;;19.96;62.67773;95418.33;;;;
2022/07/23 02:39:48;;;;;;;6.100001;5.5;;;;;;;19.56;63.55762;95410.74;;;;
2022/07/23 02:40:48;;;;;;;6.100001;5.5;;;;;;;19.56;63.55762;95410.74;;;;
2022/07/23 02:41:49;;;;;;;6.100001;5.5;;;;;;;19.56;63.55762;95410.74;;;;
2022/07/23 02:42:49;;;;;;;6.100001;5.5;;;;;;;19.56;63.55762;95410.74;;;;
2022/07/23 02:43:50;;;;;;;6.100001;5.5;;;;;;;19.56;63.55762;95410.74;;;;
2022/07/23 02:44:50;;;;;;;6.100001;5.5;;;;;;;19.56;63.55762;95410.74;;;;
2022/07/23 02:45:51;;;;;;;6.100001;5.5;;;;;;;19.56;63.55762;95410.74;;;;
2022/07/23 02:46:52;;;;;;;6.100001;5.5;;;;;;;19.56;63.55762;95410.74;;;;
2022/07/23 02:47:52;;;;;;;6.100001;5.5;;;;;;;19.56;63.55762;95410.74;;;;
2022/07/23 02:48:53;;;;;;;6.100001;5.5;;;;;;;19.56;63.55762;95410.74;;;;
2022/07/23 02:49:53;;;;;;;6.100001;5.5;;;;;;;19.56;63.55762;95410.74;;;;
2022/07/23 02:50:56;;;;;;;5.45;4.950001;;;;;;;19.4;64.58105;95511.78;;;;
2022/07/23 02:51:56;;;;;;;5.45;4.950001;;;;;;;19.4;64.58105;95511.78;;;;
2022/07/23 02:52:57;;;;;;;5.45;4.950001;;;;;;;19.4;64.58105;95511.78;;;;
2022/07/23 02:53:57;;;;;;;5.45;4.950001;;;;;;;19.4;64.58105;95511.78;;;;
2022/07/23 02:54:58;;;;;;;5.45;4.950001;;;;;;;19.4;64.58105;95511.78;;;;
2022/07/23 02:55:58;;;;;;;5.45;4.950001;;;;;;;19.4;64.58105;95511.78;;;;
2022/07/23 02:56:59;;;;;;;5.45;4.950001;;;;;;;19.4;64.58105;95511.78;;;;
2022/07/23 02:57:59;;;;;;;5.45;4.950001;;;;;;;19.4;64.58105;95511.78;;;;
2022/07/23 02:59:00;;;;;;;5.45;4.950001;;;;;;;19.4;64.58105;95511.78;;;;
2022/07/23 03:00:00;;;;;;;5.45;4.950001;;;;;;;19.4;64.58105;95511.78;;;;
2022/07/23 03:01:00;;;;;;;7.500001;6.799999;;;;;;;19.08;65.9209;95551.21;;;;
2022/07/23 03:02:01;;;;;;;7.500001;6.799999;;;;;;;19.08;65.9209;95551.21;;;;
2022/07/23 03:03:02;;;;;;;7.500001;6.799999;;;;;;;19.08;65.9209;95551.21;;;;
2022/07/23 03:04:02;;;;;;;7.500001;6.799999;;;;;;;19.08;65.9209;95551.21;;;;
2022/07/23 03:05:03;;;;;;;7.500001;6.799999;;;;;;;19.08;65.9209;95551.21;;;;
2022/07/23 03:06:05;;;;;;;7.500001;6.799999;;;;;;;19.08;65.9209;95551.21;;;;
2022/07/23 03:07:06;;;;;;;7.500001;6.799999;;;;;;;19.08;65.9209;95551.21;;;;
2022/07/23 03:08:06;;;;;;;7.500001;6.799999;;;;;;;19.08;65.9209;95551.21;;;;
2022/07/23 03:09:07;;;;;;;7.500001;6.799999;;;;;;;19.08;65.9209;95551.21;;;;
2022/07/23 03:10:07;;;;;;;7.500001;6.799999;;;;;;;19.08;65.9209;95551.21;;;;
2022/07/23 03:11:10;;;;;;;7.500001;6.799999;;;;;;;19.08;65.9209;95551.21;;;;
2022/07/23 03:12:11;;;;;;;8.300001;7.2;;;;;;;18.94;66.51465;95540.26;;;;
2022/07/23 03:13:11;;;;;;;8.300001;7.2;;;;;;;18.94;66.51465;95540.26;;;;
2022/07/23 03:14:13;;;;;;;8.300001;7.2;;;;;;;18.94;66.51465;95540.26;;;;
2022/07/23 03:15:13;;;;;;;8.300001;7.2;;;;;;;18.94;66.51465;95540.26;;;;
2022/07/23 03:16:14;;;;;;;8.300001;7.2;;;;;;;18.94;66.51465;95540.26;;;;
2022/07/23 03:17:14;;;;;;;8.300001;7.2;;;;;;;18.94;66.51465;95540.26;;;;
2022/07/23 03:18:15;;;;;;;8.300001;7.2;;;;;;;18.94;66.51465;95540.26;;;;
2022/07/23 03:19:15;;;;;;;8.300001;7.2;;;;;;;18.94;66.51465;95540.26;;;;
2022/07/23 03:20:16;;;;;;;8.300001;7.2;;;;;;;18.94;66.51465;95540.26;;;;
2022/07/23 03:21:17;;;;;;;8.300001;7.2;;;;;;;18.94;66.51465;95540.26;;;;
2022/07/23 03:22:17;;;;;;;7.8;7.100001;;;;;;;18.88;67.08887;95522.14;;;;
2022/07/23 03:23:18;;;;;;;7.8;7.100001;;;;;;;18.88;67.08887;95522.14;;;;
2022/07/23 03:24:18;;;;;;;7.8;7.100001;;;;;;;18.88;67.08887;95522.14;;;;
2022/07/23 03:25:19;;;;;;;7.8;7.100001;;;;;;;18.88;67.08887;95522.14;;;;
2022/07/23 03:26:19;;;;;;;7.8;7.100001;;;;;;;18.88;67.08887;95522.14;;;;
2022/07/23 03:27:20;;;;;;;7.8;7.100001;;;;;;;18.88;67.08887;95522.14;;;;
2022/07/23 03:28:21;;;;;;;7.8;7.100001;;;;;;;18.88;67.08887;95522.14;;;;
2022/07/23 03:29:21;;;;;;;7.8;7.100001;;;;;;;18.88;67.08887;95522.14;;;;
2022/07/23 03:30:22;;;;;;;7.8;7.100001;;;;;;;18.88;67.08887;95522.14;;;;
2022/07/23 03:31:22;;;;;;;7.8;7.100001;;;;;;;18.88;67.08887;95522.14;;;;
2022/07/23 03:32:22;;;;;;;7.8;7.100001;;;;;;;18.88;67.08887;95522.14;;;;
2022/07/23 03:33:24;;;;;;;7.8;7;;;;;;;18.88;68.51855;95475.14;;;;
2022/07/23 03:34:24;;;;;;;7.8;7;;;;;;;18.88;68.51855;95475.14;;;;
2022/07/23 03:35:25;;;;;;;7.8;7;;;;;;;18.88;68.51855;95475.14;;;;
2022/07/23 03:36:25;;;;;;;7.8;7;;;;;;;18.88;68.51855;95475.14;;;;
2022/07/23 03:37:26;;;;;;;7.8;7;;;;;;;18.88;68.51855;95475.14;;;;
2022/07/23 03:38:27;;;;;;;7.8;7;;;;;;;18.88;68.51855;95475.14;;;;
2022/07/23 03:39:27;;;;;;;7.8;7;;;;;;;18.88;68.51855;95475.14;;;;
2022/07/23 03:40:28;;;;;;;7.8;7;;;;;;;18.88;68.51855;95475.14;;;;
2022/07/23 03:41:28;;;;;;;7.8;7;;;;;;;18.88;68.51855;95475.14;;;;
2022/07/23 03:42:29;;;;;;;7.8;7;;;;;;;18.88;68.51855;95475.14;;;;
2022/07/23 03:43:30;;;;;;;7.900001;7.2;;;;;;;18.84;70.31348;95327.62;;;;
2022/07/23 03:44:30;;;;;;;7.900001;7.2;;;;;;;18.84;70.31348;95327.62;;;;
2022/07/23 03:45:31;;;;;;;7.900001;7.2;;;;;;;18.84;70.31348;95327.62;;;;
2022/07/23 03:46:32;;;;;;;7.900001;7.2;;;;;;;18.84;70.31348;95327.62;;;;
2022/07/23 03:47:32;;;;;;;7.900001;7.2;;;;;;;18.84;70.31348;95327.62;;;;
2022/07/23 03:48:32;;;;;;;7.900001;7.2;;;;;;;18.84;70.31348;95327.62;;;;
2022/07/23 03:49:33;;;;;;;7.900001;7.2;;;;;;;18.84;70.31348;95327.62;;;;
2022/07/23 03:50:34;;;;;;;7.900001;7.2;;;;;;;18.84;70.31348;95327.62;;;;
2022/07/23 03:51:35;;;;;;;7.900001;7.2;;;;;;;18.84;70.31348;95327.62;;;;
2022/07/23 03:52:35;;;;;;;7.900001;7.2;;;;;;;18.84;70.31348;95327.62;;;;
2022/07/23 03:53:36;;;;;;;7.900001;7.2;;;;;;;18.84;70.31348;95327.62;;;;
2022/07/23 03:54:36;;;;;;;8.050001;7.25;;;;;;;18.87;71.52441;95420.07;;;;
2022/07/23 03:55:37;;;;;;;8.050001;7.25;;;;;;;18.87;71.52441;95420.07;;;;
2022/07/23 03:56:37;;;;;;;8.050001;7.25;;;;;;;18.87;71.52441;95420.07;;;;
2022/07/23 03:57:38;;;;;;;8.050001;7.25;;;;;;;18.87;71.52441;95420.07;;;;
2022/07/23 03:58:38;;;;;;;8.050001;7.25;;;;;;;18.87;71.52441;95420.07;;;;
2022/07/23 03:59:39;;;;;;;8.050001;7.25;;;;;;;18.87;71.52441;95420.07;;;;
2022/07/23 04:00:39;;;;;;;8.050001;7.25;;;;;;;18.87;71.52441;95420.07;;;;
2022/07/23 04:01:40;;;;;;;8.050001;7.25;;;;;;;18.87;71.52441;95420.07;;;;
2022/07/23 04:02:40;;;;;;;8.050001;7.25;;;;;;;18.87;71.52441;95420.07;;;;
2022/07/23 04:03:41;;;;;;;8.050001;7.25;;;;;;;18.87;71.52441;95420.07;;;;
2022/07/23 04:04:41;;;;;;;7.799999;7.1;;;;;;;18.74;72.56836;95414.62;;;;
2022/07/23 04:05:42;;;;;;;7.799999;7.1;;;;;;;18.74;72.56836;95414.62;;;;
2022/07/23 04:06:42;;;;;;;7.799999;7.1;;;;;;;18.74;72.56836;95414.62;;;;
2022/07/23 04:07:43;;;;;;;7.799999;7.1;;;;;;;18.74;72.56836;95414.62;;;;
2022/07/23 04:08:43;;;;;;;7.799999;7.1;;;;;;;18.74;72.56836;95414.62;;;;
2022/07/23 04:09:43;;;;;;;7.799999;7.1;;;;;;;18.74;72.56836;95414.62;;;;
2022/07/23 04:10:44;;;;;;;7.799999;7.1;;;;;;;18.74;72.56836;95414.62;;;;
2022/07/23 04:11:44;;;;;;;7.799999;7.1;;;;;;;18.74;72.56836;95414.62;;;;
2022/07/23 04:12:45;;;;;;;7.799999;7.1;;;;;;;18.74;72.56836;95414.62;;;;
2022/07/23 04:13:45;;;;;;;7.799999;7.1;;;;;;;18.74;72.56836;95414.62;;;;
2022/07/23 04:14:46;;;;;;;7.799999;7.1;;;;;;;18.74;72.56836;95414.62;;;;
2022/07/23 04:15:46;;;;;;;9.299999;8.400002;;;;;;;18.71;73.54883;95407.11;;;;
2022/07/23 04:16:47;;;;;;;9.299999;8.400002;;;;;;;18.71;73.54883;95407.11;;;;
2022/07/23 04:17:47;;;;;;;9.299999;8.400002;;;;;;;18.71;73.54883;95407.11;;;;
2022/07/23 04:18:48;;;;;;;9.299999;8.400002;;;;;;;18.71;73.54883;95407.11;;;;
2022/07/23 04:19:48;;;;;;;9.299999;8.400002;;;;;;;18.71;73.54883;95407.11;;;;
2022/07/23 04:20:49;;;;;;;9.299999;8.400002;;;;;;;18.71;73.54883;95407.11;;;;
2022/07/23 04:21:51;;;;;;;9.299999;8.400002;;;;;;;18.71;73.54883;95407.11;;;;
2022/07/23 04:22:51;;;;;;;9.299999;8.400002;;;;;;;18.71;73.54883;95407.11;;;;
2022/07/23 04:23:52;;;;;;;9.299999;8.400002;;;;;;;18.71;73.54883;95407.11;;;;
2022/07/23 04:24:52;;;;;;;9.299999;8.400002;;;;;;;18.71;73.54883;95407.11;;;;
2022/07/23 04:25:53;;;;;;;9.299999;8.400002;;;;;;;18.71;73.54883;95407.11;;;;
2022/07/23 04:26:53;;;;;;;9.6;8.8;;;;;;;18.66;74.44043;95375.9;;;;
2022/07/23 04:27:54;;;;;;;9.6;8.8;;;;;;;18.66;74.44043;95375.9;;;;
2022/07/23 04:28:54;;;;;;;9.6;8.8;;;;;;;18.66;74.44043;95375.9;;;;
2022/07/23 04:29:55;;;;;;;9.6;8.8;;;;;;;18.66;74.44043;95375.9;;;;
2022/07/23 04:30:55;;;;;;;9.6;8.8;;;;;;;18.66;74.44043;95375.9;;;;
2022/07/23 04:31:56;;;;;;;9.6;8.8;;;;;;;18.66;74.44043;95375.9;;;;
2022/07/23 04:32:57;;;;;;;9.6;8.8;;;;;;;18.66;74.44043;95375.9;;;;
2022/07/23 04:33:57;;;;;;;9.6;8.8;;;;;;;18.66;74.44043;95375.9;;;;
2022/07/23 04:34:57;;;;;;;9.6;8.8;;;;;;;18.66;74.44043;95375.9;;;;
2022/07/23 04:35:58;;;;;;;9.6;8.8;;;;;;;18.66;74.44043;95375.9;;;;
2022/07/23 04:36:58;;;;;;;9.749999;8.65;;;;;;;18.71;75.30273;95388.36;;;;
2022/07/23 04:37:59;;;;;;;9.749999;8.65;;;;;;;18.71;75.30273;95388.36;;;;
2022/07/23 04:39:00;;;;;;;9.749999;8.65;;;;;;;18.71;75.30273;95388.36;;;;
2022/07/23 04:40:00;;;;;;;9.749999;8.65;;;;;;;18.71;75.30273;95388.36;;;;
2022/07/23 04:41:00;;;;;;;9.749999;8.65;;;;;;;18.71;75.30273;95388.36;;;;
2022/07/23 04:42:01;;;;;;;9.749999;8.65;;;;;;;18.71;75.30273;95388.36;;;;
2022/07/23 04:43:02;;;;;;;9.749999;8.65;;;;;;;18.71;75.30273;95388.36;;;;
2022/07/23 04:44:02;;;;;;;9.749999;8.65;;;;;;;18.71;75.30273;95388.36;;;;
2022/07/23 04:45:03;;;;;;;9.749999;8.65;;;;;;;18.71;75.30273;95388.36;;;;
2022/07/23 04:46:05;;;;;;;9.749999;8.65;;;;;;;18.71;75.30273;95388.36;;;;
2022/07/23 04:47:06;;;;;;;9.749999;8.65;;;;;;;18.71;75.30273;95388.36;;;;
2022/07/23 04:48:06;;;;;;;9.45;8.55;;;;;;;18.78;75.91895;95393.38;;;;
2022/07/23 04:49:07;;;;;;;9.45;8.55;;;;;;;18.78;75.91895;95393.38;;;;
2022/07/23 04:50:07;;;;;;;9.45;8.55;;;;;;;18.78;75.91895;95393.38;;;;
2022/07/23 04:51:08;;;;;;;9.45;8.55;;;;;;;18.78;75.91895;95393.38;;;;
2022/07/23 04:52:09;;;;;;;9.45;8.55;;;;;;;18.78;75.91895;95393.38;;;;
2022/07/23 04:53:09;;;;;;;9.45;8.55;;;;;;;18.78;75.91895;95393.38;;;;
2022/07/23 04:54:09;;;;;;;9.45;8.55;;;;;;;18.78;75.91895;95393.38;;;;
2022/07/23 04:55:10;;;;;;;9.45;8.55;;;;;;;18.78;75.91895;95393.38;;;;
2022/07/23 04:56:11;;;;;;;9.45;8.55;;;;;;;18.78;75.91895;95393.38;;;;
2022/07/23 04:57:11;;;;;;;9.45;8.55;;;;;;;18.78;75.91895;95393.38;;;;
2022/07/23 04:58:12;;;;;;;8.9;8.1;;;;;;;19.07;76.4502;95370.98;;;;
2022/07/23 04:59:12;;;;;;;8.9;8.1;;;;;;;19.07;76.4502;95370.98;;;;
2022/07/23 05:00:13;;;;;;;8.9;8.1;;;;;;;19.07;76.4502;95370.98;;;;
2022/07/23 05:01:14;;;;;;;8.9;8.1;;;;;;;19.07;76.4502;95370.98;;;;
2022/07/23 05:02:15;;;;;;;8.9;8.1;;;;;;;19.07;76.4502;95370.98;;;;
2022/07/23 05:03:16;;;;;;;8.9;8.1;;;;;;;19.07;76.4502;95370.98;;;;
2022/07/23 05:04:17;;;;;;;8.9;8.1;;;;;;;19.07;76.4502;95370.98;;;;
2022/07/23 05:05:17;;;;;;;8.9;8.1;;;;;;;19.07;76.4502;95370.98;;;;
2022/07/23 05:06:18;;;;;;;8.9;8.1;;;;;;;19.07;76.4502;95370.98;;;;
2022/07/23 05:07:19;;;;;;;8.9;8.1;;;;;;;19.07;76.4502;95370.98;;;;
2022/07/23 05:08:19;;;;;;;8.9;8.1;;;;;;;19.07;76.4502;95370.98;;;;
2022/07/23 05:09:20;;;;;;;8.95;8.1;;;;;;;19.27;76.5498;95361.69;;;;
2022/07/23 05:10:20;;;;;;;8.95;8.1;;;;;;;19.27;76.5498;95361.69;;;;
2022/07/23 05:11:20;;;;;;;8.95;8.1;;;;;;;19.27;76.5498;95361.69;;;;
2022/07/23 05:12:21;;;;;;;8.95;8.1;;;;;;;19.27;76.5498;95361.69;;;;
2022/07/23 05:13:22;;;;;;;8.95;8.1;;;;;;;19.27;76.5498;95361.69;;;;
2022/07/23 05:14:22;;;;;;;8.95;8.1;;;;;;;19.27;76.5498;95361.69;;;;
2022/07/23 05:15:23;;;;;;;8.95;8.1;;;;;;;19.27;76.5498;95361.69;;;;
2022/07/23 05:16:24;;;;;;;8.95;8.1;;;;;;;19.27;76.5498;95361.69;;;;
2022/07/23 05:17:24;;;;;;;8.95;8.1;;;;;;;19.27;76.5498;95361.69;;;;
2022/07/23 05:18:25;;;;;;;8.95;8.1;;;;;;;19.27;76.5498;95361.69;;;;
2022/07/23 05:19:25;;;;;;;9.750001;8.75;;;;;;;19.43;76.89551;95371.82;;;;
2022/07/23 05:20:26;;;;;;;9.750001;8.75;;;;;;;19.43;76.89551;95371.82;;;;
2022/07/23 05:21:26;;;;;;;9.750001;8.75;;;;;;;19.43;76.89551;95371.82;;;;
2022/07/23 05:22:27;;;;;;;9.750001;8.75;;;;;;;19.43;76.89551;95371.82;;;;
2022/07/23 05:23:28;;;;;;;9.750001;8.75;;;;;;;19.43;76.89551;95371.82;;;;
2022/07/23 05:24:28;;;;;;;9.750001;8.75;;;;;;;19.43;76.89551;95371.82;;;;
2022/07/23 05:25:29;;;;;;;9.750001;8.75;;;;;;;19.43;76.89551;95371.82;;;;
2022/07/23 05:26:30;;;;;;;9.750001;8.75;;;;;;;19.43;76.89551;95371.82;;;;
2022/07/23 05:27:30;;;;;;;9.750001;8.75;;;;;;;19.43;76.89551;95371.82;;;;
2022/07/23 05:28:31;;;;;;;9.750001;8.75;;;;;;;19.43;76.89551;95371.82;;;;
2022/07/23 05:29:31;;;;;;;9.750001;8.75;;;;;;;19.43;76.89551;95371.82;;;;